sensor_id;sensor_type;location;lat;lon;timestamp;temperature;humidity
26182;DHT22;13927;51.534;11.866;2023-04-24T00:01:17;13.20;99.90
26182;DHT22;13927;51.534;11.866;2023-04-24T00:03:45;13.20;99.90
26182;DHT22;13927;51.534;11.866;2023-04-24T00:06:12;13.10;99.90
26182;DHT22;13927;51.534;11.866;2023-04-24T00:08:37;13.10;99.90
26182;DHT22;13927;51.534;11.866;2023-04-24T00:11:03;13.00;99.90
26182;DHT22;13927;51.534;11.866;2023-04-24T00:13:29;12.90;99.90
26182;DHT22;13927;51.534;11.866;2023-04-24T00:15:56;12.80;99.90
26182;DHT22;13927;51.534;11.866;2023-04-24T00:18:21;12.70;99.90
26182;DHT22;13927;51.534;11.866;2023-04-24T00:20:47;12.60;99.90
26182;DHT22;13927;51.534;11.866;2023-04-24T00:23:13;12.50;99.90
26182;DHT22;13927;51.534;11.866;2023-04-24T00:25:39;12.40;99.90
26182;DHT22;13927;51.534;11.866;2023-04-24T00:28:05;12.30;99.90
26182;DHT22;13927;51.534;11.866;2023-04-24T00:30:31;12.20;99.90
26182;DHT22;13927;51.534;11.866;2023-04-24T00:32:57;12.10;99.90
26182;DHT22;13927;51.534;11.866;2023-04-24T00:35:23;12.00;99.90
26182;DHT22;13927;51.534;11.866;2023-04-24T00:37:55;12.00;99.90
26182;DHT22;13927;51.534;11.866;2023-04-24T00:40:21;11.90;99.90
26182;DHT22;13927;51.534;11.866;2023-04-24T00:42:46;11.80;99.90
26182;DHT22;13927;51.534;11.866;2023-04-24T00:45:12;11.80;99.90
26182;DHT22;13927;51.534;11.866;2023-04-24T00:47:38;11.70;99.90
26182;DHT22;13927;51.534;11.866;2023-04-24T00:50:05;11.70;99.90
26182;DHT22;13927;51.534;11.866;2023-04-24T00:52:32;11.70;99.90
26182;DHT22;13927;51.534;11.866;2023-04-24T00:54:58;11.60;99.90
26182;DHT22;13927;51.534;11.866;2023-04-24T00:57:24;11.60;99.90
26182;DHT22;13927;51.534;11.866;2023-04-24T00:59:52;11.50;99.90
26182;DHT22;13927;51.534;11.866;2023-04-24T01:02:19;11.50;99.90
26182;DHT22;13927;51.534;11.866;2023-04-24T01:05:09;11.40;99.90
26182;DHT22;13927;51.534;11.866;2023-04-24T01:07:35;11.30;99.90
26182;DHT22;13927;51.534;11.866;2023-04-24T01:10:01;11.30;99.90
26182;DHT22;13927;51.534;11.866;2023-04-24T01:12:30;11.20;99.90
26182;DHT22;13927;51.534;11.866;2023-04-24T01:14:56;11.20;99.90
26182;DHT22;13927;51.534;11.866;2023-04-24T01:17:32;11.10;99.90
26182;DHT22;13927;51.534;11.866;2023-04-24T01:20:01;11.10;99.90
26182;DHT22;13927;51.534;11.866;2023-04-24T01:22:29;11.00;99.90
26182;DHT22;13927;51.534;11.866;2023-04-24T01:24:55;11.00;99.90
26182;DHT22;13927;51.534;11.866;2023-04-24T01:27:20;11.00;99.90
26182;DHT22;13927;51.534;11.866;2023-04-24T01:29:46;10.90;99.90
26182;DHT22;13927;51.534;11.866;2023-04-24T01:32:14;10.90;99.90
26182;DHT22;13927;51.534;11.866;2023-04-24T01:34:43;10.90;99.90
26182;DHT22;13927;51.534;11.866;2023-04-24T01:37:09;10.90;99.90
26182;DHT22;13927;51.534;11.866;2023-04-24T01:39:35;10.80;99.90
26182;DHT22;13927;51.534;11.866;2023-04-24T01:42:00;10.80;99.90
26182;DHT22;13927;51.534;11.866;2023-04-24T01:44:28;10.80;99.90
26182;DHT22;13927;51.534;11.866;2023-04-24T01:46:55;10.70;99.90
26182;DHT22;13927;51.534;11.866;2023-04-24T01:49:21;10.70;99.90
26182;DHT22;13927;51.534;11.866;2023-04-24T01:51:46;10.70;99.90
26182;DHT22;13927;51.534;11.866;2023-04-24T01:54:13;10.60;99.90
26182;DHT22;13927;51.534;11.866;2023-04-24T01:56:41;10.60;99.90
26182;DHT22;13927;51.534;11.866;2023-04-24T01:59:09;10.60;99.90
26182;DHT22;13927;51.534;11.866;2023-04-24T02:01:38;10.60;99.90
26182;DHT22;13927;51.534;11.866;2023-04-24T02:04:05;10.60;99.90
26182;DHT22;13927;51.534;11.866;2023-04-24T02:06:32;10.60;99.90
26182;DHT22;13927;51.534;11.866;2023-04-24T02:08:59;10.60;99.90
26182;DHT22;13927;51.534;11.866;2023-04-24T02:11:25;10.60;99.90
26182;DHT22;13927;51.534;11.866;2023-04-24T02:13:51;10.60;99.90
26182;DHT22;13927;51.534;11.866;2023-04-24T02:16:17;10.60;99.90
26182;DHT22;13927;51.534;11.866;2023-04-24T02:18:43;10.60;99.90
26182;DHT22;13927;51.534;11.866;2023-04-24T02:21:09;10.60;99.90
26182;DHT22;13927;51.534;11.866;2023-04-24T02:23:35;10.70;99.90
26182;DHT22;13927;51.534;11.866;2023-04-24T02:26:01;10.70;99.90
26182;DHT22;13927;51.534;11.866;2023-04-24T02:28:27;10.70;99.90
26182;DHT22;13927;51.534;11.866;2023-04-24T02:30:53;10.70;99.90
26182;DHT22;13927;51.534;11.866;2023-04-24T02:33:19;10.70;99.90
26182;DHT22;13927;51.534;11.866;2023-04-24T02:35:48;10.70;99.90
26182;DHT22;13927;51.534;11.866;2023-04-24T02:38:14;10.70;99.90
26182;DHT22;13927;51.534;11.866;2023-04-24T02:40:39;10.80;99.90
26182;DHT22;13927;51.534;11.866;2023-04-24T02:43:05;10.80;99.90
26182;DHT22;13927;51.534;11.866;2023-04-24T02:45:31;10.70;99.90
26182;DHT22;13927;51.534;11.866;2023-04-24T02:47:56;10.70;99.90
26182;DHT22;13927;51.534;11.866;2023-04-24T02:50:22;10.70;99.90
26182;DHT22;13927;51.534;11.866;2023-04-24T02:52:48;10.80;99.90
26182;DHT22;13927;51.534;11.866;2023-04-24T02:55:14;10.80;99.90
26182;DHT22;13927;51.534;11.866;2023-04-24T02:57:40;10.80;99.90
26182;DHT22;13927;51.534;11.866;2023-04-24T03:00:06;10.80;99.90
26182;DHT22;13927;51.534;11.866;2023-04-24T03:02:33;10.70;99.90
26182;DHT22;13927;51.534;11.866;2023-04-24T03:04:59;10.70;99.90
26182;DHT22;13927;51.534;11.866;2023-04-24T03:07:25;10.60;99.90
26182;DHT22;13927;51.534;11.866;2023-04-24T03:09:51;10.60;99.90
26182;DHT22;13927;51.534;11.866;2023-04-24T03:12:17;10.60;99.90
26182;DHT22;13927;51.534;11.866;2023-04-24T03:14:43;10.60;99.90
26182;DHT22;13927;51.534;11.866;2023-04-24T03:17:10;10.60;99.90
26182;DHT22;13927;51.534;11.866;2023-04-24T03:19:35;10.60;99.90
26182;DHT22;13927;51.534;11.866;2023-04-24T03:22:02;10.60;99.90
26182;DHT22;13927;51.534;11.866;2023-04-24T03:24:29;10.60;99.90
26182;DHT22;13927;51.534;11.866;2023-04-24T03:26:56;10.60;99.90
26182;DHT22;13927;51.534;11.866;2023-04-24T03:29:22;10.70;99.90
26182;DHT22;13927;51.534;11.866;2023-04-24T03:31:58;10.70;99.90
26182;DHT22;13927;51.534;11.866;2023-04-24T03:34:23;10.70;99.90
26182;DHT22;13927;51.534;11.866;2023-04-24T03:36:49;10.60;99.90
26182;DHT22;13927;51.534;11.866;2023-04-24T03:39:15;10.70;99.90
26182;DHT22;13927;51.534;11.866;2023-04-24T03:41:41;10.60;99.90
26182;DHT22;13927;51.534;11.866;2023-04-24T03:44:06;10.60;99.90
26182;DHT22;13927;51.534;11.866;2023-04-24T03:46:32;10.60;99.90
26182;DHT22;13927;51.534;11.866;2023-04-24T03:48:58;10.50;99.90
26182;DHT22;13927;51.534;11.866;2023-04-24T03:51:24;10.50;99.90
26182;DHT22;13927;51.534;11.866;2023-04-24T03:53:49;10.50;99.90
26182;DHT22;13927;51.534;11.866;2023-04-24T03:56:15;10.40;99.90
26182;DHT22;13927;51.534;11.866;2023-04-24T03:58:41;10.40;99.90
26182;DHT22;13927;51.534;11.866;2023-04-24T04:01:08;10.40;99.90
26182;DHT22;13927;51.534;11.866;2023-04-24T04:03:34;10.50;99.90
26182;DHT22;13927;51.534;11.866;2023-04-24T04:06:00;10.50;99.90
26182;DHT22;13927;51.534;11.866;2023-04-24T04:08:25;10.60;99.90
26182;DHT22;13927;51.534;11.866;2023-04-24T04:10:51;10.60;99.90
26182;DHT22;13927;51.534;11.866;2023-04-24T04:13:17;10.60;99.90
26182;DHT22;13927;51.534;11.866;2023-04-24T04:15:43;10.70;99.90
26182;DHT22;13927;51.534;11.866;2023-04-24T04:18:08;10.70;99.90
26182;DHT22;13927;51.534;11.866;2023-04-24T04:20:34;10.60;99.90
26182;DHT22;13927;51.534;11.866;2023-04-24T04:23:00;10.50;99.90
26182;DHT22;13927;51.534;11.866;2023-04-24T04:25:26;10.50;99.90
26182;DHT22;13927;51.534;11.866;2023-04-24T04:27:52;10.40;99.90
26182;DHT22;13927;51.534;11.866;2023-04-24T04:30:19;10.40;99.90
26182;DHT22;13927;51.534;11.866;2023-04-24T04:32:46;10.40;99.90
26182;DHT22;13927;51.534;11.866;2023-04-24T04:35:12;10.30;99.90
26182;DHT22;13927;51.534;11.866;2023-04-24T04:37:38;10.30;99.90
26182;DHT22;13927;51.534;11.866;2023-04-24T04:40:05;10.30;99.90
26182;DHT22;13927;51.534;11.866;2023-04-24T04:42:32;10.30;99.90
26182;DHT22;13927;51.534;11.866;2023-04-24T04:45:01;10.40;99.90
26182;DHT22;13927;51.534;11.866;2023-04-24T04:47:27;10.50;99.90
26182;DHT22;13927;51.534;11.866;2023-04-24T04:49:54;10.60;99.90
26182;DHT22;13927;51.534;11.866;2023-04-24T04:52:20;10.70;99.90
26182;DHT22;13927;51.534;11.866;2023-04-24T04:54:50;10.90;99.90
26182;DHT22;13927;51.534;11.866;2023-04-24T04:57:16;11.00;99.90
26182;DHT22;13927;51.534;11.866;2023-04-24T04:59:42;11.20;99.90
26182;DHT22;13927;51.534;11.866;2023-04-24T05:02:08;11.30;99.90
26182;DHT22;13927;51.534;11.866;2023-04-24T05:04:34;11.40;99.90
26182;DHT22;13927;51.534;11.866;2023-04-24T05:07:00;11.50;99.90
26182;DHT22;13927;51.534;11.866;2023-04-24T05:09:26;11.60;99.90
26182;DHT22;13927;51.534;11.866;2023-04-24T05:11:53;11.70;99.90
26182;DHT22;13927;51.534;11.866;2023-04-24T05:14:19;11.80;99.90
26182;DHT22;13927;51.534;11.866;2023-04-24T05:16:45;11.90;99.90
26182;DHT22;13927;51.534;11.866;2023-04-24T05:19:11;12.00;99.90
26182;DHT22;13927;51.534;11.866;2023-04-24T05:21:39;12.10;99.90
26182;DHT22;13927;51.534;11.866;2023-04-24T05:24:08;12.20;99.90
26182;DHT22;13927;51.534;11.866;2023-04-24T05:26:33;12.40;99.90
26182;DHT22;13927;51.534;11.866;2023-04-24T05:29:01;12.50;99.90
26182;DHT22;13927;51.534;11.866;2023-04-24T05:31:27;12.60;99.90
26182;DHT22;13927;51.534;11.866;2023-04-24T05:33:53;12.70;99.90
26182;DHT22;13927;51.534;11.866;2023-04-24T05:36:19;12.80;99.90
26182;DHT22;13927;51.534;11.866;2023-04-24T05:38:45;12.70;99.90
26182;DHT22;13927;51.534;11.866;2023-04-24T05:41:10;12.60;99.90
26182;DHT22;13927;51.534;11.866;2023-04-24T05:43:37;12.50;99.90
26182;DHT22;13927;51.534;11.866;2023-04-24T05:46:03;12.50;99.90
26182;DHT22;13927;51.534;11.866;2023-04-24T05:48:29;12.60;99.90
26182;DHT22;13927;51.534;11.866;2023-04-24T05:50:56;12.80;99.90
26182;DHT22;13927;51.534;11.866;2023-04-24T05:53:22;12.90;99.90
26182;DHT22;13927;51.534;11.866;2023-04-24T05:55:48;13.10;99.90
26182;DHT22;13927;51.534;11.866;2023-04-24T05:58:15;13.30;99.90
26182;DHT22;13927;51.534;11.866;2023-04-24T06:00:41;13.60;99.90
26182;DHT22;13927;51.534;11.866;2023-04-24T06:03:08;13.80;99.90
26182;DHT22;13927;51.534;11.866;2023-04-24T06:05:35;14.00;99.90
26182;DHT22;13927;51.534;11.866;2023-04-24T06:08:01;14.10;99.90
26182;DHT22;13927;51.534;11.866;2023-04-24T06:10:27;14.10;99.90
26182;DHT22;13927;51.534;11.866;2023-04-24T06:12:53;14.10;99.90
26182;DHT22;13927;51.534;11.866;2023-04-24T06:15:22;14.10;99.90
26182;DHT22;13927;51.534;11.866;2023-04-24T06:17:48;13.90;99.90
26182;DHT22;13927;51.534;11.866;2023-04-24T06:20:14;13.80;99.90
26182;DHT22;13927;51.534;11.866;2023-04-24T06:22:40;13.70;99.90
26182;DHT22;13927;51.534;11.866;2023-04-24T06:25:06;13.50;99.90
26182;DHT22;13927;51.534;11.866;2023-04-24T06:27:32;13.30;99.90
26182;DHT22;13927;51.534;11.866;2023-04-24T06:29:58;13.30;99.90
26182;DHT22;13927;51.534;11.866;2023-04-24T06:32:25;13.20;99.90
26182;DHT22;13927;51.534;11.866;2023-04-24T06:34:52;13.20;99.90
26182;DHT22;13927;51.534;11.866;2023-04-24T06:37:20;13.20;99.90
26182;DHT22;13927;51.534;11.866;2023-04-24T06:39:46;13.40;99.90
26182;DHT22;13927;51.534;11.866;2023-04-24T06:42:12;13.60;99.90
26182;DHT22;13927;51.534;11.866;2023-04-24T06:44:39;13.90;99.90
26182;DHT22;13927;51.534;11.866;2023-04-24T06:47:11;14.20;99.90
26182;DHT22;13927;51.534;11.866;2023-04-24T06:49:41;14.20;99.90
26182;DHT22;13927;51.534;11.866;2023-04-24T06:52:08;14.30;99.90
26182;DHT22;13927;51.534;11.866;2023-04-24T06:54:35;14.20;99.90
26182;DHT22;13927;51.534;11.866;2023-04-24T06:57:01;14.20;99.90
26182;DHT22;13927;51.534;11.866;2023-04-24T06:59:29;14.10;99.90
26182;DHT22;13927;51.534;11.866;2023-04-24T07:01:56;14.20;99.90
26182;DHT22;13927;51.534;11.866;2023-04-24T07:04:22;14.20;99.90
26182;DHT22;13927;51.534;11.866;2023-04-24T07:06:50;14.40;99.90
26182;DHT22;13927;51.534;11.866;2023-04-24T07:09:18;14.70;99.90
26182;DHT22;13927;51.534;11.866;2023-04-24T07:11:45;14.80;99.90
26182;DHT22;13927;51.534;11.866;2023-04-24T07:14:12;15.00;99.90
26182;DHT22;13927;51.534;11.866;2023-04-24T07:16:38;15.00;99.90
26182;DHT22;13927;51.534;11.866;2023-04-24T07:19:05;15.10;99.90
26182;DHT22;13927;51.534;11.866;2023-04-24T07:21:32;15.20;99.90
26182;DHT22;13927;51.534;11.866;2023-04-24T07:23:59;15.30;99.90
26182;DHT22;13927;51.534;11.866;2023-04-24T07:26:27;15.30;99.90
26182;DHT22;13927;51.534;11.866;2023-04-24T07:28:55;15.30;99.90
26182;DHT22;13927;51.534;11.866;2023-04-24T07:31:22;15.20;99.90
26182;DHT22;13927;51.534;11.866;2023-04-24T07:33:48;15.30;99.90
26182;DHT22;13927;51.534;11.866;2023-04-24T07:36:15;15.20;99.90
26182;DHT22;13927;51.534;11.866;2023-04-24T07:38:47;15.10;99.90
26182;DHT22;13927;51.534;11.866;2023-04-24T07:41:14;14.90;99.90
26182;DHT22;13927;51.534;11.866;2023-04-24T07:43:41;14.80;99.90
26182;DHT22;13927;51.534;11.866;2023-04-24T07:46:08;14.60;99.90
26182;DHT22;13927;51.534;11.866;2023-04-24T07:48:35;14.70;99.90
26182;DHT22;13927;51.534;11.866;2023-04-24T07:51:02;14.50;99.90
26182;DHT22;13927;51.534;11.866;2023-04-24T07:53:29;14.40;99.90
26182;DHT22;13927;51.534;11.866;2023-04-24T07:55:56;14.30;99.90
26182;DHT22;13927;51.534;11.866;2023-04-24T07:58:22;14.30;99.90
26182;DHT22;13927;51.534;11.866;2023-04-24T08:00:48;14.30;99.90
26182;DHT22;13927;51.534;11.866;2023-04-24T08:03:15;14.30;99.90
26182;DHT22;13927;51.534;11.866;2023-04-24T08:05:43;14.40;99.90
26182;DHT22;13927;51.534;11.866;2023-04-24T08:08:10;14.50;99.90
26182;DHT22;13927;51.534;11.866;2023-04-24T08:10:36;14.60;99.90
26182;DHT22;13927;51.534;11.866;2023-04-24T08:13:03;14.60;99.90
26182;DHT22;13927;51.534;11.866;2023-04-24T08:15:29;14.70;99.90
26182;DHT22;13927;51.534;11.866;2023-04-24T08:17:55;14.80;99.90
26182;DHT22;13927;51.534;11.866;2023-04-24T08:20:23;15.00;99.90
26182;DHT22;13927;51.534;11.866;2023-04-24T08:22:50;15.30;99.90
26182;DHT22;13927;51.534;11.866;2023-04-24T08:25:17;15.70;99.90
26182;DHT22;13927;51.534;11.866;2023-04-24T08:27:45;15.80;99.90
26182;DHT22;13927;51.534;11.866;2023-04-24T08:30:12;16.00;99.90
26182;DHT22;13927;51.534;11.866;2023-04-24T08:32:39;16.00;99.90
26182;DHT22;13927;51.534;11.866;2023-04-24T08:35:05;16.10;99.90
26182;DHT22;13927;51.534;11.866;2023-04-24T08:37:35;16.30;99.90
26182;DHT22;13927;51.534;11.866;2023-04-24T08:40:21;16.00;99.90
26182;DHT22;13927;51.534;11.866;2023-04-24T08:42:57;15.90;99.90
26182;DHT22;13927;51.534;11.866;2023-04-24T08:45:24;15.50;99.90
26182;DHT22;13927;51.534;11.866;2023-04-24T08:47:53;15.50;99.90
26182;DHT22;13927;51.534;11.866;2023-04-24T08:50:22;15.60;99.90
26182;DHT22;13927;51.534;11.866;2023-04-24T08:52:52;15.90;99.90
26182;DHT22;13927;51.534;11.866;2023-04-24T08:55:20;16.30;99.90
26182;DHT22;13927;51.534;11.866;2023-04-24T08:57:51;16.40;99.90
26182;DHT22;13927;51.534;11.866;2023-04-24T09:00:21;16.50;99.90
26182;DHT22;13927;51.534;11.866;2023-04-24T09:02:52;16.70;99.90
26182;DHT22;13927;51.534;11.866;2023-04-24T09:05:21;16.80;99.90
26182;DHT22;13927;51.534;11.866;2023-04-24T09:07:56;17.00;99.90
26182;DHT22;13927;51.534;11.866;2023-04-24T09:10:25;16.90;99.90
26182;DHT22;13927;51.534;11.866;2023-04-24T09:12:52;16.80;99.90
26182;DHT22;13927;51.534;11.866;2023-04-24T09:15:19;16.50;99.90
26182;DHT22;13927;51.534;11.866;2023-04-24T09:17:49;16.60;99.90
26182;DHT22;13927;51.534;11.866;2023-04-24T09:20:17;16.40;99.90
26182;DHT22;13927;51.534;11.866;2023-04-24T09:22:45;16.50;99.90
26182;DHT22;13927;51.534;11.866;2023-04-24T09:25:12;16.60;99.90
26182;DHT22;13927;51.534;11.866;2023-04-24T09:27:45;16.80;99.90
26182;DHT22;13927;51.534;11.866;2023-04-24T09:30:12;16.60;99.90
26182;DHT22;13927;51.534;11.866;2023-04-24T09:32:41;16.70;99.90
26182;DHT22;13927;51.534;11.866;2023-04-24T09:35:11;16.70;99.90
26182;DHT22;13927;51.534;11.866;2023-04-24T09:37:45;16.90;99.90
26182;DHT22;13927;51.534;11.866;2023-04-24T09:40:21;16.90;99.90
26182;DHT22;13927;51.534;11.866;2023-04-24T09:42:55;17.00;99.90
26182;DHT22;13927;51.534;11.866;2023-04-24T09:45:43;16.90;99.90
26182;DHT22;13927;51.534;11.866;2023-04-24T09:48:10;16.90;99.90
26182;DHT22;13927;51.534;11.866;2023-04-24T09:50:37;17.00;99.90
26182;DHT22;13927;51.534;11.866;2023-04-24T09:53:05;17.00;99.90
26182;DHT22;13927;51.534;11.866;2023-04-24T09:55:42;16.80;99.90
26182;DHT22;13927;51.534;11.866;2023-04-24T09:58:13;16.90;99.90
26182;DHT22;13927;51.534;11.866;2023-04-24T10:00:41;16.80;99.90
26182;DHT22;13927;51.534;11.866;2023-04-24T10:03:08;17.00;99.90
26182;DHT22;13927;51.534;11.866;2023-04-24T10:05:36;17.10;99.90
26182;DHT22;13927;51.534;11.866;2023-04-24T10:08:11;16.80;99.90
26182;DHT22;13927;51.534;11.866;2023-04-24T10:10:43;16.40;99.90
26182;DHT22;13927;51.534;11.866;2023-04-24T10:13:14;16.30;99.90
26182;DHT22;13927;51.534;11.866;2023-04-24T10:15:42;16.60;99.90
26182;DHT22;13927;51.534;11.866;2023-04-24T10:18:11;16.80;99.90
26182;DHT22;13927;51.534;11.866;2023-04-24T10:20:39;16.90;99.90
26182;DHT22;13927;51.534;11.866;2023-04-24T10:23:06;16.90;99.90
26182;DHT22;13927;51.534;11.866;2023-04-24T10:25:34;16.80;99.90
26182;DHT22;13927;51.534;11.866;2023-04-24T10:28:03;16.40;99.90
26182;DHT22;13927;51.534;11.866;2023-04-24T10:30:32;16.40;99.90
26182;DHT22;13927;51.534;11.866;2023-04-24T10:33:04;16.20;99.90
26182;DHT22;13927;51.534;11.866;2023-04-24T10:35:36;16.00;99.90
26182;DHT22;13927;51.534;11.866;2023-04-24T10:38:16;15.80;99.90
26182;DHT22;13927;51.534;11.866;2023-04-24T10:40:49;16.00;99.90
26182;DHT22;13927;51.534;11.866;2023-04-24T10:43:17;15.70;99.90
26182;DHT22;13927;51.534;11.866;2023-04-24T10:46:04;15.50;99.90
26182;DHT22;13927;51.534;11.866;2023-04-24T10:48:32;15.30;99.90
26182;DHT22;13927;51.534;11.866;2023-04-24T10:51:01;15.40;99.90
26182;DHT22;13927;51.534;11.866;2023-04-24T10:53:29;15.70;99.90
26182;DHT22;13927;51.534;11.866;2023-04-24T10:56:04;15.90;99.90
26182;DHT22;13927;51.534;11.866;2023-04-24T10:58:41;16.10;99.90
26182;DHT22;13927;51.534;11.866;2023-04-24T11:01:26;16.00;99.90
26182;DHT22;13927;51.534;11.866;2023-04-24T11:03:58;16.00;99.90
26182;DHT22;13927;51.534;11.866;2023-04-24T11:06:34;16.30;99.90
26182;DHT22;13927;51.534;11.866;2023-04-24T11:09:08;16.80;99.90
26182;DHT22;13927;51.534;11.866;2023-04-24T11:11:38;16.80;99.90
26182;DHT22;13927;51.534;11.866;2023-04-24T11:14:10;16.90;99.90
26182;DHT22;13927;51.534;11.866;2023-04-24T11:16:56;16.70;99.90
26182;DHT22;13927;51.534;11.866;2023-04-24T11:19:26;16.50;99.90
26182;DHT22;13927;51.534;11.866;2023-04-24T11:24:48;16.80;99.90
26182;DHT22;13927;51.534;11.866;2023-04-24T11:27:18;17.10;99.90
26182;DHT22;13927;51.534;11.866;2023-04-24T11:32:42;17.00;99.90
26182;DHT22;13927;51.534;11.866;2023-04-24T11:35:20;17.40;99.90
26182;DHT22;13927;51.534;11.866;2023-04-24T11:37:53;17.40;99.90
26182;DHT22;13927;51.534;11.866;2023-04-24T11:40:21;17.30;99.90
26182;DHT22;13927;51.534;11.866;2023-04-24T11:42:53;17.10;99.90
26182;DHT22;13927;51.534;11.866;2023-04-24T11:45:25;17.00;99.90
26182;DHT22;13927;51.534;11.866;2023-04-24T11:47:56;16.80;99.90
26182;DHT22;13927;51.534;11.866;2023-04-24T11:50:25;16.90;99.90
26182;DHT22;13927;51.534;11.866;2023-04-24T11:52:54;17.10;99.90
26182;DHT22;13927;51.534;11.866;2023-04-24T11:57:56;17.50;99.90
26182;DHT22;13927;51.534;11.866;2023-04-24T12:00:30;17.50;99.90
26182;DHT22;13927;51.534;11.866;2023-04-24T12:05:32;16.50;99.90
26182;DHT22;13927;51.534;11.866;2023-04-24T12:08:00;16.40;99.90
26182;DHT22;13927;51.534;11.866;2023-04-24T12:10:29;16.50;99.90
26182;DHT22;13927;51.534;11.866;2023-04-24T12:12:57;16.50;99.90
26182;DHT22;13927;51.534;11.866;2023-04-24T12:15:25;16.30;99.90
26182;DHT22;13927;51.534;11.866;2023-04-24T12:17:53;16.30;99.90
26182;DHT22;13927;51.534;11.866;2023-04-24T12:20:32;16.80;99.90
26182;DHT22;13927;51.534;11.866;2023-04-24T12:23:01;17.10;99.90
26182;DHT22;13927;51.534;11.866;2023-04-24T12:25:33;16.80;99.90
26182;DHT22;13927;51.534;11.866;2023-04-24T12:30:43;16.20;99.90
26182;DHT22;13927;51.534;11.866;2023-04-24T12:33:18;16.10;99.90
26182;DHT22;13927;51.534;11.866;2023-04-24T12:35:45;16.00;99.90
26182;DHT22;13927;51.534;11.866;2023-04-24T12:38:15;15.70;99.90
26182;DHT22;13927;51.534;11.866;2023-04-24T12:40:44;15.70;99.90
26182;DHT22;13927;51.534;11.866;2023-04-24T12:43:19;16.10;99.90
26182;DHT22;13927;51.534;11.866;2023-04-24T12:45:47;16.60;99.90
26182;DHT22;13927;51.534;11.866;2023-04-24T12:48:14;16.30;99.90
26182;DHT22;13927;51.534;11.866;2023-04-24T12:50:41;16.30;99.90
26182;DHT22;13927;51.534;11.866;2023-04-24T12:53:08;16.40;99.90
26182;DHT22;13927;51.534;11.866;2023-04-24T12:55:36;16.20;99.90
26182;DHT22;13927;51.534;11.866;2023-04-24T12:58:04;16.10;99.90
26182;DHT22;13927;51.534;11.866;2023-04-24T13:00:31;16.40;99.90
26182;DHT22;13927;51.534;11.866;2023-04-24T13:02:59;16.50;99.90
26182;DHT22;13927;51.534;11.866;2023-04-24T13:05:25;16.60;99.90
26182;DHT22;13927;51.534;11.866;2023-04-24T13:07:51;16.90;99.90
26182;DHT22;13927;51.534;11.866;2023-04-24T13:10:18;16.80;99.90
26182;DHT22;13927;51.534;11.866;2023-04-24T13:12:44;16.70;99.90
26182;DHT22;13927;51.534;11.866;2023-04-24T13:15:11;16.50;99.90
26182;DHT22;13927;51.534;11.866;2023-04-24T13:17:37;16.10;99.90
26182;DHT22;13927;51.534;11.866;2023-04-24T13:20:04;15.90;99.90
26182;DHT22;13927;51.534;11.866;2023-04-24T13:22:31;15.80;99.90
26182;DHT22;13927;51.534;11.866;2023-04-24T13:24:57;16.10;99.90
26182;DHT22;13927;51.534;11.866;2023-04-24T13:27:23;16.10;99.90
26182;DHT22;13927;51.534;11.866;2023-04-24T13:29:49;15.80;99.90
26182;DHT22;13927;51.534;11.866;2023-04-24T13:32:16;15.50;99.90
26182;DHT22;13927;51.534;11.866;2023-04-24T13:34:43;15.30;99.90
26182;DHT22;13927;51.534;11.866;2023-04-24T13:37:10;15.20;99.90
26182;DHT22;13927;51.534;11.866;2023-04-24T13:39:36;14.90;99.90
26182;DHT22;13927;51.534;11.866;2023-04-24T13:42:03;14.60;99.90
26182;DHT22;13927;51.534;11.866;2023-04-24T13:44:29;14.60;99.90
26182;DHT22;13927;51.534;11.866;2023-04-24T13:46:57;14.60;99.90
26182;DHT22;13927;51.534;11.866;2023-04-24T13:49:24;14.60;99.90
26182;DHT22;13927;51.534;11.866;2023-04-24T13:51:53;14.60;99.90
26182;DHT22;13927;51.534;11.866;2023-04-24T13:54:21;14.90;99.90
26182;DHT22;13927;51.534;11.866;2023-04-24T13:56:52;15.70;99.90
26182;DHT22;13927;51.534;11.866;2023-04-24T13:59:20;16.20;99.90
26182;DHT22;13927;51.534;11.866;2023-04-24T14:01:46;16.20;99.90
26182;DHT22;13927;51.534;11.866;2023-04-24T14:04:13;16.20;99.90
26182;DHT22;13927;51.534;11.866;2023-04-24T14:06:39;15.60;99.90
26182;DHT22;13927;51.534;11.866;2023-04-24T14:09:06;15.40;99.90
26182;DHT22;13927;51.534;11.866;2023-04-24T14:11:34;15.50;99.90
26182;DHT22;13927;51.534;11.866;2023-04-24T14:14:01;15.70;99.90
26182;DHT22;13927;51.534;11.866;2023-04-24T14:16:28;15.40;99.90
26182;DHT22;13927;51.534;11.866;2023-04-24T14:18:56;15.00;99.90
26182;DHT22;13927;51.534;11.866;2023-04-24T14:21:22;15.10;99.90
26182;DHT22;13927;51.534;11.866;2023-04-24T14:23:50;15.50;99.90
26182;DHT22;13927;51.534;11.866;2023-04-24T14:26:16;15.50;99.90
26182;DHT22;13927;51.534;11.866;2023-04-24T14:28:42;15.00;99.90
26182;DHT22;13927;51.534;11.866;2023-04-24T14:31:08;14.50;99.90
26182;DHT22;13927;51.534;11.866;2023-04-24T14:33:35;14.30;99.90
26182;DHT22;13927;51.534;11.866;2023-04-24T14:36:01;14.20;99.90
26182;DHT22;13927;51.534;11.866;2023-04-24T14:38:29;14.10;99.90
26182;DHT22;13927;51.534;11.866;2023-04-24T14:40:57;14.10;99.90
26182;DHT22;13927;51.534;11.866;2023-04-24T14:43:23;14.00;99.90
26182;DHT22;13927;51.534;11.866;2023-04-24T14:45:49;13.90;99.90
26182;DHT22;13927;51.534;11.866;2023-04-24T14:48:15;13.80;99.90
26182;DHT22;13927;51.534;11.866;2023-04-24T14:50:41;13.70;99.90
26182;DHT22;13927;51.534;11.866;2023-04-24T14:53:07;13.60;99.90
26182;DHT22;13927;51.534;11.866;2023-04-24T14:55:34;13.40;99.90
26182;DHT22;13927;51.534;11.866;2023-04-24T14:58:02;13.50;99.90
26182;DHT22;13927;51.534;11.866;2023-04-24T15:00:30;14.10;99.90
26182;DHT22;13927;51.534;11.866;2023-04-24T15:02:56;14.60;99.90
26182;DHT22;13927;51.534;11.866;2023-04-24T15:05:23;14.70;99.90
26182;DHT22;13927;51.534;11.866;2023-04-24T15:07:50;14.40;99.90
26182;DHT22;13927;51.534;11.866;2023-04-24T15:10:16;14.10;99.90
26182;DHT22;13927;51.534;11.866;2023-04-24T15:12:43;14.00;99.90
26182;DHT22;13927;51.534;11.866;2023-04-24T15:15:10;14.10;99.90
26182;DHT22;13927;51.534;11.866;2023-04-24T15:17:36;13.80;99.90
26182;DHT22;13927;51.534;11.866;2023-04-24T15:20:03;13.90;99.90
26182;DHT22;13927;51.534;11.866;2023-04-24T15:22:32;13.90;99.90
26182;DHT22;13927;51.534;11.866;2023-04-24T15:24:58;13.70;99.90
26182;DHT22;13927;51.534;11.866;2023-04-24T15:27:25;13.60;99.90
26182;DHT22;13927;51.534;11.866;2023-04-24T15:29:51;14.00;99.90
26182;DHT22;13927;51.534;11.866;2023-04-24T15:32:19;14.20;99.90